CheckWX is a tool to help pilots better visualize weather data.  It is not intended as a substitute for an official pre-flight weather briefing.

18:11:37 UTC

KHND METAR
Henderson Executive Airport
Las Vegas, Nevada, USA
Current

16 mins ago

KHND 171756Z 21012KT 10SM OVC110 07/M03 A2993 RMK AO2 SLP141 T00671028 10072 20017 50003 $
Observed
Feb-17 @ 17:56 UTC
Wind
  • 210° at 12 KTS
Visibility
10 SM
Flight Rules
VFR
Cloud Levels
  • Overcast at 11,000' AGL
Temperature
C / 45°F
Dewpoint
-3°C / 27°F
Humidity
49%
Altimeter
29.93" Hg
Pressure
1014.1 hPa
Previous

1 hour ago

KHND 171656Z 21013KT 10SM CLR 06/M02 A2993 RMK AO2 SLP143 T00611022 $
Observed
Feb-17 @ 16:56 UTC
Wind
  • 210° at 13 KTS
Visibility
10 SM
Flight Rules
VFR
Cloud Levels
  • Clear skies
Temperature
C / 43°F
Dewpoint
-2°C / 28°F
Humidity
57%
Altimeter
29.93" Hg
Pressure
1014.3 hPa
Previous

2 hours ago

KHND 171556Z 22008KT 10SM CLR 04/M02 A2993 RMK AO2 SLP144 T00391017 $
Observed
Feb-17 @ 15:56 UTC
Wind
  • 220° at 8 KTS
Visibility
10 SM
Flight Rules
VFR
Cloud Levels
  • Clear skies
Temperature
C / 39°F
Dewpoint
-2°C / 28°F
Humidity
65%
Altimeter
29.93" Hg
Pressure
1014.4 hPa